createdAt,value
2016-08-22T00:00:01.401Z,1020.72
2016-08-22T00:01:01.411Z,1020.7
2016-08-22T00:02:01.437Z,1020.7
2016-08-22T00:03:01.461Z,1020.72
2016-08-22T00:04:01.535Z,1020.73
2016-08-22T00:05:01.501Z,1020.76
2016-08-22T00:06:01.525Z,1020.73
2016-08-22T00:07:01.544Z,1020.7
2016-08-22T00:08:01.565Z,1020.71
2016-08-22T00:09:01.590Z,1020.69
2016-08-22T00:10:01.613Z,1020.67
2016-08-22T00:11:01.630Z,1020.68
2016-08-22T00:12:01.655Z,1020.71
2016-08-22T00:13:01.674Z,1020.76
2016-08-22T00:14:01.699Z,1020.71
2016-08-22T00:15:01.723Z,1020.78
2016-08-22T00:16:01.746Z,1020.74
2016-08-22T00:17:01.765Z,1020.74
2016-08-22T00:18:01.790Z,1020.75
2016-08-22T00:19:01.807Z,1020.78
2016-08-22T00:20:01.835Z,1020.78
2016-08-22T00:21:01.856Z,1020.77
2016-08-22T00:22:01.882Z,1020.78
2016-08-22T00:23:01.896Z,1020.84
2016-08-22T00:24:01.921Z,1020.85
2016-08-22T00:25:01.938Z,1020.81
2016-08-22T00:26:01.965Z,1020.82
2016-08-22T00:27:01.989Z,1020.79
2016-08-22T00:28:02.149Z,1020.83
2016-08-22T00:29:02.034Z,1020.88
2016-08-22T00:30:02.053Z,1020.84
2016-08-22T00:31:02.070Z,1020.81
2016-08-22T00:32:02.092Z,1020.82
2016-08-22T00:33:02.114Z,1020.87
2016-08-22T00:34:02.136Z,1020.88
2016-08-22T00:35:02.168Z,1020.84
2016-08-22T00:36:02.181Z,1020.86
2016-08-22T00:37:02.205Z,1020.88
2016-08-22T00:38:02.221Z,1020.88
2016-08-22T00:39:02.248Z,1020.92
2016-08-22T00:40:02.275Z,1020.88
2016-08-22T00:41:02.298Z,1020.86
2016-08-22T00:42:02.310Z,1020.84
2016-08-22T00:43:02.341Z,1020.91
2016-08-22T00:44:02.364Z,1020.88
2016-08-22T00:45:02.384Z,1020.86
2016-08-22T00:46:02.405Z,1020.91
2016-08-22T00:47:02.423Z,1020.92
2016-08-22T00:48:02.451Z,1020.91
2016-08-22T00:49:02.465Z,1020.93
2016-08-22T00:50:02.493Z,1020.95
2016-08-22T00:51:02.516Z,1020.95
2016-08-22T00:52:02.626Z,1020.95
2016-08-22T00:53:02.561Z,1020.94
2016-08-22T00:54:02.687Z,1020.94
2016-08-22T00:55:02.604Z,1020.92
2016-08-22T00:56:02.673Z,1020.93
2016-08-22T00:57:02.645Z,1020.9
2016-08-22T00:58:02.669Z,1020.93
2016-08-22T00:59:02.698Z,1020.9
2016-08-22T01:00:02.713Z,1020.91
2016-08-22T01:01:02.732Z,1020.98
2016-08-22T01:02:02.766Z,1020.98
2016-08-22T01:03:02.784Z,1020.97
2016-08-22T01:04:02.850Z,1020.97
2016-08-22T01:05:02.819Z,1020.97
2016-08-22T01:06:02.844Z,1020.99
2016-08-22T01:07:02.867Z,1020.99
2016-08-22T01:08:02.890Z,1021
2016-08-22T01:09:02.915Z,1020.99
2016-08-22T01:10:02.933Z,1020.99
2016-08-22T01:11:02.962Z,1020.99
2016-08-22T01:12:02.981Z,1021
2016-08-22T01:13:03.005Z,1021.03
2016-08-22T01:14:03.023Z,1021.02
2016-08-22T01:15:03.048Z,1021.02
2016-08-22T01:16:03.066Z,1021.04
2016-08-22T01:17:03.089Z,1021.05
2016-08-22T01:18:03.110Z,1021.11
2016-08-22T01:19:03.131Z,1021.09
2016-08-22T01:20:03.161Z,1021.08
2016-08-22T01:21:03.173Z,1021.08
2016-08-22T01:22:03.205Z,1021.09
2016-08-22T01:23:03.219Z,1021.11
2016-08-22T01:24:03.241Z,1021.09
2016-08-22T01:25:03.260Z,1021.15
2016-08-22T01:26:03.285Z,1021.14
2016-08-22T01:27:03.303Z,1021.07
2016-08-22T01:28:03.329Z,1021.1
2016-08-22T01:29:03.350Z,1021.1
2016-08-22T01:30:03.373Z,1021.09
2016-08-22T01:31:03.395Z,1021.1
2016-08-22T01:32:03.424Z,1021.13
2016-08-22T01:33:03.441Z,1021.09
2016-08-22T01:34:03.458Z,1021.11
2016-08-22T01:35:03.481Z,1021.11
2016-08-22T01:36:03.512Z,1021.16
2016-08-22T01:37:03.533Z,1021.17
2016-08-22T01:38:03.549Z,1021.15
2016-08-22T01:39:03.573Z,1021.16
2016-08-22T01:40:03.595Z,1021.15
2016-08-22T01:41:03.612Z,1021.14
2016-08-22T01:42:03.635Z,1021.16
2016-08-22T01:43:03.664Z,1021.14
2016-08-22T01:44:03.683Z,1021.12
2016-08-22T01:45:03.704Z,1021.13
2016-08-22T01:46:03.723Z,1021.16
2016-08-22T01:47:03.755Z,1021.12
2016-08-22T01:48:03.767Z,1021.12
2016-08-22T01:49:03.791Z,1021.14
2016-08-22T01:50:03.814Z,1021.13
2016-08-22T01:51:03.836Z,1021.13
2016-08-22T01:52:03.857Z,1021.12
2016-08-22T01:53:03.885Z,1021.12
2016-08-22T01:54:03.900Z,1021.13
2016-08-22T01:55:03.918Z,1021.13
2016-08-22T01:56:03.939Z,1021.13
2016-08-22T01:57:03.966Z,1021.11
2016-08-22T01:58:03.992Z,1021.14
2016-08-22T01:59:04.008Z,1021.09
2016-08-22T02:00:04.025Z,1021.13
2016-08-22T02:01:04.047Z,1021.14
2016-08-22T02:02:04.075Z,1021.12
2016-08-22T02:03:04.104Z,1021.12
2016-08-22T02:04:04.174Z,1021.14
2016-08-22T02:05:04.144Z,1021.09
2016-08-22T02:06:04.159Z,1021.05
2016-08-22T02:07:04.183Z,1021.09
2016-08-22T02:08:04.205Z,1021.04
2016-08-22T02:09:04.234Z,1021.08
2016-08-22T02:10:04.243Z,1021.07
2016-08-22T02:11:04.273Z,1021.1
2016-08-22T02:12:04.295Z,1021.06
2016-08-22T02:13:04.314Z,1021.1
2016-08-22T02:14:04.335Z,1021.11
2016-08-22T02:15:04.353Z,1021.12
2016-08-22T02:16:04.385Z,1021.15
2016-08-22T02:17:04.406Z,1021.17
2016-08-22T02:18:04.418Z,1021.17
2016-08-22T02:19:04.443Z,1021.18
2016-08-22T02:20:04.464Z,1021.19
2016-08-22T02:21:04.483Z,1021.18
2016-08-22T02:22:04.514Z,1021.18
2016-08-22T02:23:04.532Z,1021.19
2016-08-22T02:24:04.555Z,1021.18
2016-08-22T02:25:04.573Z,1021.16
2016-08-22T02:26:04.599Z,1021.2
2016-08-22T02:27:04.624Z,1021.17
2016-08-22T02:28:04.660Z,1021.24
2016-08-22T02:29:04.664Z,1021.2
2016-08-22T02:30:04.684Z,1021.24
2016-08-22T02:31:04.703Z,1021.2
2016-08-22T02:32:04.723Z,1021.27
2016-08-22T02:33:04.754Z,1021.24
2016-08-22T02:34:04.776Z,1021.28
2016-08-22T02:35:04.792Z,1021.25
2016-08-22T02:36:04.817Z,1021.26
2016-08-22T02:37:04.834Z,1021.3
2016-08-22T02:38:04.854Z,1021.35
2016-08-22T02:39:04.880Z,1021.34
2016-08-22T02:40:04.906Z,1021.39
2016-08-22T02:41:04.925Z,1021.39
2016-08-22T02:42:04.941Z,1021.42
2016-08-22T02:43:04.969Z,1021.44
2016-08-22T02:44:04.995Z,1021.5
2016-08-22T02:45:05.009Z,1021.5
2016-08-22T02:46:05.037Z,1021.52
2016-08-22T02:47:05.054Z,1021.53
2016-08-22T02:48:05.073Z,1021.53
2016-08-22T02:49:05.098Z,1021.54
2016-08-22T02:50:05.125Z,1021.47
2016-08-22T02:51:05.144Z,1021.5
2016-08-22T02:52:05.165Z,1021.5
2016-08-22T02:53:05.184Z,1021.49
2016-08-22T02:54:05.205Z,1021.47
2016-08-22T02:55:05.228Z,1021.45
2016-08-22T02:56:05.256Z,1021.45
2016-08-22T02:57:05.276Z,1021.45
2016-08-22T02:58:05.293Z,1021.41
2016-08-22T02:59:05.321Z,1021.49
2016-08-22T03:00:05.341Z,1021.47
2016-08-22T03:01:05.364Z,1021.53
2016-08-22T03:02:05.384Z,1021.51
2016-08-22T03:03:05.408Z,1021.53
2016-08-22T03:04:05.478Z,1021.53
2016-08-22T03:05:05.450Z,1021.55
2016-08-22T03:06:05.472Z,1021.56
2016-08-22T03:07:05.492Z,1021.54
2016-08-22T03:08:05.516Z,1021.53
2016-08-22T03:09:05.539Z,1021.59
2016-08-22T03:10:05.561Z,1021.6
2016-08-22T03:11:05.578Z,1021.59
2016-08-22T03:12:05.606Z,1021.55
2016-08-22T03:13:05.624Z,1021.61
2016-08-22T03:14:05.650Z,1021.58
2016-08-22T03:15:05.676Z,1021.58
2016-08-22T03:16:05.694Z,1021.57
2016-08-22T03:17:05.713Z,1021.53
2016-08-22T03:18:05.747Z,1021.53
2016-08-22T03:19:05.760Z,1021.52
2016-08-22T03:20:05.779Z,1021.51
2016-08-22T03:21:05.804Z,1021.55
2016-08-22T03:22:05.824Z,1021.56
2016-08-22T03:23:05.849Z,1021.58
2016-08-22T03:24:05.869Z,1021.52
2016-08-22T03:25:05.894Z,1021.58
2016-08-22T03:26:05.916Z,1021.58
2016-08-22T03:27:06.021Z,1021.56
2016-08-22T03:28:05.959Z,1021.58
2016-08-22T03:29:05.982Z,1021.56
2016-08-22T03:30:06.205Z,1021.55
2016-08-22T03:31:06.022Z,1021.55
2016-08-22T03:32:06.044Z,1021.63
2016-08-22T03:33:06.073Z,1021.58
2016-08-22T03:34:06.106Z,1021.6
2016-08-22T03:35:06.121Z,1021.56
2016-08-22T03:36:06.134Z,1021.56
2016-08-22T03:37:06.163Z,1021.57
2016-08-22T03:38:06.186Z,1021.6
2016-08-22T03:39:06.202Z,1021.61
2016-08-22T03:40:06.233Z,1021.61
2016-08-22T03:41:06.251Z,1021.59
2016-08-22T03:42:06.284Z,1021.63
2016-08-22T03:43:06.289Z,1021.6
2016-08-22T03:44:06.316Z,1021.63
2016-08-22T03:45:06.334Z,1021.65
2016-08-22T03:46:06.364Z,1021.62
2016-08-22T03:47:06.385Z,1021.66
2016-08-22T03:48:06.405Z,1021.67
2016-08-22T03:49:06.423Z,1021.63
2016-08-22T03:50:06.461Z,1021.62
2016-08-22T03:51:06.474Z,1021.66
2016-08-22T03:52:06.497Z,1021.66
2016-08-22T03:53:06.571Z,1021.67
2016-08-22T03:54:06.534Z,1021.64
2016-08-22T03:55:06.563Z,1021.65
2016-08-22T03:56:06.581Z,1021.68
2016-08-22T03:57:06.604Z,1021.72
2016-08-22T03:58:06.624Z,1021.75
2016-08-22T03:59:06.648Z,1021.75
2016-08-22T04:00:06.671Z,1021.71
2016-08-22T04:01:06.694Z,1021.75
2016-08-22T04:02:06.719Z,1021.74
2016-08-22T04:03:06.735Z,1021.74
2016-08-22T04:04:06.765Z,1021.75
2016-08-22T04:05:06.790Z,1021.77
2016-08-22T04:06:06.810Z,1021.79
2016-08-22T04:07:06.824Z,1021.77
2016-08-22T04:08:06.858Z,1021.81
2016-08-22T04:09:06.873Z,1021.83
2016-08-22T04:10:06.894Z,1021.86
2016-08-22T04:11:06.911Z,1021.84
2016-08-22T04:12:06.938Z,1021.89
2016-08-22T04:13:06.964Z,1021.84
2016-08-22T04:14:06.983Z,1021.84
2016-08-22T04:15:07.004Z,1021.84
2016-08-22T04:16:07.035Z,1021.87
2016-08-22T04:17:07.053Z,1021.87
2016-08-22T04:18:07.076Z,1021.85
2016-08-22T04:19:07.095Z,1021.82
2016-08-22T04:20:07.113Z,1021.82
2016-08-22T04:21:07.134Z,1021.83
2016-08-22T04:22:07.166Z,1021.87
2016-08-22T04:23:07.183Z,1021.86
2016-08-22T04:24:07.203Z,1021.85
2016-08-22T04:25:07.239Z,1021.89
2016-08-22T04:26:07.248Z,1021.92
2016-08-22T04:27:07.271Z,1021.93
2016-08-22T04:28:07.295Z,1021.93
2016-08-22T04:29:07.317Z,1021.88
2016-08-22T04:30:07.341Z,1021.91
2016-08-22T04:31:07.358Z,1021.91
2016-08-22T04:32:07.385Z,1021.99
2016-08-22T04:33:07.405Z,1021.98
2016-08-22T04:34:07.441Z,1021.98
2016-08-22T04:35:07.449Z,1021.95
2016-08-22T04:36:07.474Z,1021.95
2016-08-22T04:37:07.493Z,1022
2016-08-22T04:38:07.525Z,1022.01
2016-08-22T04:39:07.538Z,1022.02
2016-08-22T04:40:07.569Z,1021.97
2016-08-22T04:41:07.582Z,1022
2016-08-22T04:42:07.610Z,1021.98
2016-08-22T04:43:07.623Z,1021.96
2016-08-22T04:44:07.655Z,1022.04
2016-08-22T04:45:07.670Z,1022.04
2016-08-22T04:46:07.693Z,1022.07
2016-08-22T04:47:07.717Z,1022.09
2016-08-22T04:48:07.875Z,1022.05
2016-08-22T04:49:07.763Z,1022.07
2016-08-22T04:50:07.782Z,1022.05
2016-08-22T04:51:07.809Z,1022.09
2016-08-22T04:52:07.834Z,1022.05
2016-08-22T04:53:07.852Z,1022.07
2016-08-22T04:54:07.875Z,1022.1
2016-08-22T04:55:07.896Z,1022.06
2016-08-22T04:56:07.926Z,1022.07
2016-08-22T04:57:07.946Z,1022.03
2016-08-22T04:58:07.963Z,1022.05
2016-08-22T04:59:07.987Z,1022.04
2016-08-22T05:00:08.015Z,1022
2016-08-22T05:01:08.031Z,1022.04
2016-08-22T05:02:08.055Z,1022.08
2016-08-22T05:03:08.082Z,1022.07
2016-08-22T05:04:08.153Z,1022.08
2016-08-22T05:05:08.125Z,1022.09
2016-08-22T05:06:08.143Z,1022.09
2016-08-22T05:07:08.175Z,1022.11
2016-08-22T05:08:08.194Z,1022.12
2016-08-22T05:09:08.211Z,1022.16
2016-08-22T05:10:08.233Z,1022.22
2016-08-22T05:11:08.255Z,1022.24
2016-08-22T05:12:08.282Z,1022.26
2016-08-22T05:13:08.299Z,1022.28
2016-08-22T05:14:08.323Z,1022.26
2016-08-22T05:15:08.348Z,1022.23
2016-08-22T05:16:08.376Z,1022.28
2016-08-22T05:17:08.392Z,1022.28
2016-08-22T05:18:08.427Z,1022.27
2016-08-22T05:19:08.449Z,1022.32
2016-08-22T05:20:08.462Z,1022.32
2016-08-22T05:21:08.496Z,1022.3
2016-08-22T05:22:08.505Z,1022.29
2016-08-22T05:23:08.542Z,1022.29
2016-08-22T05:24:08.556Z,1022.28
2016-08-22T05:25:08.674Z,1022.3
2016-08-22T05:26:08.603Z,1022.29
2016-08-22T05:27:08.673Z,1022.28
2016-08-22T05:28:08.648Z,1022.23
2016-08-22T05:29:08.671Z,1022.26
2016-08-22T05:30:08.691Z,1022.24
2016-08-22T05:31:08.714Z,1022.24
2016-08-22T05:32:08.736Z,1022.3
2016-08-22T05:33:08.766Z,1022.32
2016-08-22T05:34:08.789Z,1022.28
2016-08-22T05:35:08.807Z,1022.28
2016-08-22T05:36:08.839Z,1022.29
2016-08-22T05:37:08.853Z,1022.25
2016-08-22T05:38:08.875Z,1022.3
2016-08-22T05:39:08.907Z,1022.33
2016-08-22T05:40:08.926Z,1022.36
2016-08-22T05:41:08.948Z,1022.34
2016-08-22T05:42:08.975Z,1022.35
2016-08-22T05:43:08.994Z,1022.35
2016-08-22T05:44:09.026Z,1022.37
2016-08-22T05:45:09.040Z,1022.42
2016-08-22T05:46:09.058Z,1022.44
2016-08-22T05:47:09.090Z,1022.44
2016-08-22T05:48:09.107Z,1022.49
2016-08-22T05:49:09.145Z,1022.5
2016-08-22T05:50:09.158Z,1022.51
2016-08-22T05:51:09.183Z,1022.51
2016-08-22T05:52:09.203Z,1022.55
2016-08-22T05:53:09.227Z,1022.53
2016-08-22T05:54:09.256Z,1022.54
2016-08-22T05:55:09.273Z,1022.55
2016-08-22T05:56:09.303Z,1022.57
2016-08-22T05:57:09.320Z,1022.6
2016-08-22T05:58:09.345Z,1022.58
2016-08-22T05:59:09.367Z,1022.63
2016-08-22T06:00:09.398Z,1022.62
2016-08-22T06:01:09.466Z,1022.65
2016-08-22T06:02:09.448Z,1022.67
2016-08-22T06:03:09.466Z,1022.66
2016-08-22T06:04:09.489Z,1022.68
2016-08-22T06:05:09.516Z,1022.74
2016-08-22T06:06:09.538Z,1022.72
2016-08-22T06:07:09.558Z,1022.73
2016-08-22T06:08:09.581Z,1022.73
2016-08-22T06:09:09.605Z,1022.74
2016-08-22T06:10:09.629Z,1022.74
2016-08-22T06:11:09.655Z,1022.73
2016-08-22T06:12:09.685Z,1022.72
2016-08-22T06:13:09.705Z,1022.74
2016-08-22T06:14:09.736Z,1022.75
2016-08-22T06:15:09.756Z,1022.8
2016-08-22T06:16:09.774Z,1022.84
2016-08-22T06:17:09.800Z,1022.87
2016-08-22T06:18:09.822Z,1022.86
2016-08-22T06:19:09.856Z,1022.86
2016-08-22T06:20:09.871Z,1022.9
2016-08-22T06:21:09.896Z,1022.87
2016-08-22T06:22:10.017Z,1022.87
2016-08-22T06:23:09.943Z,1022.84
2016-08-22T06:24:09.975Z,1022.85
2016-08-22T06:25:10.003Z,1022.85
2016-08-22T06:26:10.028Z,1022.86
2016-08-22T06:27:10.041Z,1022.91
2016-08-22T06:28:10.066Z,1022.88
2016-08-22T06:29:10.084Z,1022.93
2016-08-22T06:30:10.115Z,1022.99
2016-08-22T06:31:10.132Z,1022.95
2016-08-22T06:32:10.159Z,1023.03
2016-08-22T06:33:10.276Z,1022.99
2016-08-22T06:34:10.214Z,1023
2016-08-22T06:35:10.335Z,1022.97
2016-08-22T06:36:10.266Z,1022.99
2016-08-22T06:37:10.283Z,1023.01
2016-08-22T06:38:10.303Z,1023.03
2016-08-22T06:39:10.334Z,1023.07
2016-08-22T06:40:10.355Z,1023.09
2016-08-22T06:41:10.382Z,1023.1
2016-08-22T06:42:10.417Z,1023.15
2016-08-22T06:43:10.436Z,1023.18
2016-08-22T06:44:10.458Z,1023.1
2016-08-22T06:45:10.475Z,1023.1
2016-08-22T06:46:10.562Z,1023.11
2016-08-22T06:47:10.524Z,1023.14
2016-08-22T06:48:10.605Z,1023.21
2016-08-22T06:49:10.572Z,1023.21
2016-08-22T06:50:10.600Z,1023.23
2016-08-22T06:51:10.623Z,1023.21
2016-08-22T06:52:10.648Z,1023.21
2016-08-22T06:53:10.676Z,1023.23
2016-08-22T06:54:10.706Z,1023.18
2016-08-22T06:55:10.724Z,1023.32
2016-08-22T06:56:10.744Z,1023.27
2016-08-22T06:57:10.776Z,1023.28
2016-08-22T06:58:10.795Z,1023.28
2016-08-22T06:59:10.825Z,1023.29
2016-08-22T07:00:10.846Z,1023.32
2016-08-22T07:01:10.872Z,1023.29
2016-08-22T07:02:10.894Z,1023.32
2016-08-22T07:03:10.921Z,1023.26
2016-08-22T07:04:11.005Z,1023.26
2016-08-22T07:05:10.975Z,1023.35
2016-08-22T07:06:10.997Z,1023.27
2016-08-22T07:07:11.028Z,1023.34
2016-08-22T07:08:11.053Z,1023.4
2016-08-22T07:09:11.073Z,1023.26
2016-08-22T07:10:11.103Z,1023.24
2016-08-22T07:11:11.132Z,1023.33
2016-08-22T07:12:11.159Z,1023.24
2016-08-22T07:13:11.190Z,1023.39
2016-08-22T07:14:11.213Z,1023.26
2016-08-22T07:15:11.239Z,1023.41
2016-08-22T07:16:11.265Z,1023.47
2016-08-22T07:17:11.293Z,1023.34
2016-08-22T07:18:11.327Z,1023.34
2016-08-22T07:19:11.352Z,1023.25
2016-08-22T07:20:11.385Z,1023.33
2016-08-22T07:21:11.406Z,1023.38
2016-08-22T07:22:11.443Z,1023.27
2016-08-22T07:23:11.463Z,1023.24
2016-08-22T07:24:11.490Z,1023.25
2016-08-22T07:25:11.523Z,1023.45
2016-08-22T07:26:11.555Z,1023.49
2016-08-22T07:27:11.579Z,1023.48
2016-08-22T07:28:11.611Z,1023.34
2016-08-22T07:29:11.642Z,1023.5
2016-08-22T07:30:11.665Z,1023.66
2016-08-22T07:31:11.696Z,1023.65
2016-08-22T07:32:11.732Z,1023.58
2016-08-22T07:33:11.756Z,1023.53
2016-08-22T07:34:11.787Z,1023.42
2016-08-22T07:35:11.812Z,1023.35
2016-08-22T07:36:11.854Z,1023.37
2016-08-22T07:37:11.883Z,1023.38
2016-08-22T07:38:11.908Z,1023.4
2016-08-22T07:39:11.945Z,1023.43
2016-08-22T07:40:11.974Z,1023.42
2016-08-22T07:41:11.999Z,1023.39
2016-08-22T07:42:12.028Z,1023.4
2016-08-22T07:43:12.065Z,1023.35
2016-08-22T07:44:12.088Z,1023.33
2016-08-22T07:45:12.125Z,1023.37
2016-08-22T07:46:12.154Z,1023.38
2016-08-22T07:47:12.179Z,1023.46
2016-08-22T07:48:12.264Z,1023.46
2016-08-22T07:49:12.251Z,1023.51
2016-08-22T07:50:12.263Z,1023.48
2016-08-22T07:51:12.297Z,1023.46
2016-08-22T07:52:12.324Z,1023.48
2016-08-22T07:53:12.353Z,1023.44
2016-08-22T07:54:12.378Z,1023.52
2016-08-22T07:55:12.415Z,1023.51
2016-08-22T07:56:12.441Z,1023.53
2016-08-22T07:57:12.476Z,1023.56
2016-08-22T07:58:12.495Z,1023.62
2016-08-22T07:59:12.526Z,1023.56
2016-08-22T08:00:12.561Z,1023.57
2016-08-22T08:01:12.581Z,1023.53
2016-08-22T08:02:12.613Z,1023.56
2016-08-22T08:03:12.645Z,1023.59
2016-08-22T08:04:12.713Z,1023.61
2016-08-22T08:05:12.696Z,1023.66
2016-08-22T08:06:12.744Z,1023.66
2016-08-22T08:07:12.746Z,1023.67
2016-08-22T08:08:12.785Z,1023.63
2016-08-22T08:09:12.813Z,1023.65
2016-08-22T08:10:12.835Z,1023.67
2016-08-22T08:11:12.864Z,1023.67
2016-08-22T08:12:12.890Z,1023.67
2016-08-22T08:13:12.921Z,1023.64
2016-08-22T08:14:12.952Z,1023.65
2016-08-22T08:15:12.974Z,1023.65
2016-08-22T08:16:13.002Z,1023.59
2016-08-22T08:17:13.033Z,1023.6
2016-08-22T08:18:13.065Z,1023.63
2016-08-22T08:19:13.085Z,1023.56
2016-08-22T08:20:13.114Z,1023.5
2016-08-22T08:21:13.144Z,1023.49
2016-08-22T08:22:13.171Z,1023.52
2016-08-22T08:23:13.192Z,1023.6
2016-08-22T08:24:13.225Z,1023.73
2016-08-22T08:25:13.254Z,1023.69
2016-08-22T08:26:13.281Z,1023.69
2016-08-22T08:27:13.313Z,1023.66
2016-08-22T08:28:13.341Z,1023.66
2016-08-22T08:29:13.362Z,1023.68
2016-08-22T08:30:13.395Z,1023.66
2016-08-22T08:31:13.426Z,1023.66
2016-08-22T08:32:13.446Z,1023.66
2016-08-22T08:33:13.477Z,1023.68
2016-08-22T08:34:13.499Z,1023.63
2016-08-22T08:35:13.530Z,1023.64
2016-08-22T08:36:13.556Z,1023.68
2016-08-22T08:37:13.585Z,1023.7
2016-08-22T08:38:13.623Z,1023.74
2016-08-22T08:39:13.654Z,1023.76
2016-08-22T08:40:13.662Z,1023.75
2016-08-22T08:41:13.695Z,1023.77
2016-08-22T08:42:13.724Z,1023.75
2016-08-22T08:43:13.744Z,1023.76
2016-08-22T08:44:13.780Z,1023.74
2016-08-22T08:45:13.804Z,1023.73
2016-08-22T08:46:13.837Z,1023.76
2016-08-22T08:47:13.856Z,1023.73
2016-08-22T08:48:13.893Z,1023.7
2016-08-22T08:49:13.917Z,1023.72
2016-08-22T08:50:13.947Z,1023.74
2016-08-22T08:51:13.980Z,1023.73
2016-08-22T08:52:13.993Z,1023.71
2016-08-22T08:53:14.026Z,1023.69
2016-08-22T08:54:14.052Z,1023.66
2016-08-22T08:55:14.083Z,1023.73
2016-08-22T08:56:14.112Z,1023.77
2016-08-22T08:57:14.136Z,1023.74
2016-08-22T08:58:14.180Z,1023.76
2016-08-22T08:59:14.192Z,1023.75
2016-08-22T09:00:14.212Z,1023.73
2016-08-22T09:01:14.246Z,1023.78
2016-08-22T09:02:14.270Z,1023.77
2016-08-22T09:03:14.304Z,1023.73
2016-08-22T09:04:14.382Z,1023.84
2016-08-22T09:05:14.356Z,1023.82
2016-08-22T09:06:14.385Z,1023.85
2016-08-22T09:07:14.408Z,1023.86
2016-08-22T09:08:14.435Z,1023.86
2016-08-22T09:09:14.467Z,1023.91
2016-08-22T09:10:14.492Z,1023.93
2016-08-22T09:11:14.526Z,1023.93
2016-08-22T09:12:14.654Z,1023.98
2016-08-22T09:13:14.575Z,1023.95
2016-08-22T09:14:14.598Z,1023.97
2016-08-22T09:15:14.634Z,1023.95
2016-08-22T09:16:14.665Z,1023.9
2016-08-22T09:17:14.687Z,1023.87
2016-08-22T09:18:14.716Z,1023.9
2016-08-22T09:19:14.742Z,1023.88
2016-08-22T09:20:14.776Z,1023.87
2016-08-22T09:21:14.945Z,1023.89
2016-08-22T09:22:14.826Z,1023.86
2016-08-22T09:23:14.853Z,1023.85
2016-08-22T09:24:14.877Z,1023.83
2016-08-22T09:25:14.904Z,1023.83
2016-08-22T09:26:14.933Z,1023.88
2016-08-22T09:27:14.965Z,1023.85
2016-08-22T09:28:14.987Z,1023.84
2016-08-22T09:29:15.031Z,1023.86
2016-08-22T09:30:15.047Z,1023.88
2016-08-22T09:31:15.063Z,1023.86
2016-08-22T09:32:15.091Z,1023.91
2016-08-22T09:33:15.116Z,1023.96
2016-08-22T09:34:15.146Z,1023.92
2016-08-22T09:35:15.175Z,1023.92
2016-08-22T09:36:15.208Z,1023.87
2016-08-22T09:37:15.236Z,1023.87
2016-08-22T09:38:15.254Z,1023.85
2016-08-22T09:39:15.279Z,1023.81
2016-08-22T09:40:15.315Z,1023.81
2016-08-22T09:41:15.335Z,1023.87
2016-08-22T09:42:15.366Z,1023.94
2016-08-22T09:43:15.397Z,1023.87
2016-08-22T09:44:15.416Z,1023.9
2016-08-22T09:45:15.441Z,1023.94
2016-08-22T09:46:15.477Z,1023.89
2016-08-22T09:47:15.494Z,1023.93
2016-08-22T09:48:15.526Z,1023.95
2016-08-22T09:49:15.555Z,1023.95
2016-08-22T09:50:15.578Z,1023.99
2016-08-22T09:51:15.609Z,1024.02
2016-08-22T09:52:15.635Z,1024.02
2016-08-22T09:53:15.662Z,1024.02
2016-08-22T09:54:15.686Z,1024.03
2016-08-22T09:55:15.717Z,1024.02
2016-08-22T09:56:15.744Z,1024.03
2016-08-22T09:57:15.768Z,1024.01
2016-08-22T09:58:15.807Z,1023.93
2016-08-22T09:59:15.826Z,1023.91
2016-08-22T10:00:15.857Z,1023.98
2016-08-22T10:01:15.877Z,1023.96
2016-08-22T10:02:15.906Z,1023.99
2016-08-22T10:03:15.977Z,1023.98
2016-08-22T10:04:15.955Z,1024.05
2016-08-22T10:05:15.985Z,1024.06
2016-08-22T10:06:16.009Z,1024.06
2016-08-22T10:07:16.041Z,1024.06
2016-08-22T10:08:16.071Z,1024.11
2016-08-22T10:09:16.094Z,1024.11
2016-08-22T10:10:16.120Z,1024.04
2016-08-22T10:11:16.145Z,1024.06
2016-08-22T10:12:16.311Z,1024.04
2016-08-22T10:13:16.198Z,1024.06
2016-08-22T10:14:16.274Z,1024.03
2016-08-22T10:15:16.255Z,1024.06
2016-08-22T10:16:16.327Z,1024.07
2016-08-22T10:17:16.303Z,1024.13
2016-08-22T10:18:16.332Z,1024.17
2016-08-22T10:19:16.357Z,1024.17
2016-08-22T10:20:16.383Z,1024.23
2016-08-22T10:21:16.421Z,1024.19
2016-08-22T10:22:16.443Z,1024.15
2016-08-22T10:23:16.485Z,1024.16
2016-08-22T10:24:16.493Z,1024.2
2016-08-22T10:25:16.523Z,1024.19
2016-08-22T10:26:16.546Z,1024.18
2016-08-22T10:27:16.575Z,1024.18
2016-08-22T10:28:16.606Z,1024.21
2016-08-22T10:29:16.631Z,1024.2
2016-08-22T10:30:16.655Z,1024.21
2016-08-22T10:31:16.687Z,1024.15
2016-08-22T10:32:16.711Z,1024.23
2016-08-22T10:33:16.741Z,1024.24
2016-08-22T10:34:16.776Z,1024.26
2016-08-22T10:35:16.791Z,1024.23
2016-08-22T10:36:16.871Z,1024.28
2016-08-22T10:37:16.846Z,1024.27
2016-08-22T10:38:16.877Z,1024.29
2016-08-22T10:39:16.906Z,1024.3
2016-08-22T10:40:16.927Z,1024.28
2016-08-22T10:41:16.952Z,1024.3
2016-08-22T10:42:16.988Z,1024.23
2016-08-22T10:43:17.007Z,1024.18
2016-08-22T10:44:17.036Z,1024.23
2016-08-22T10:45:17.064Z,1024.21
2016-08-22T10:46:17.089Z,1024.18
2016-08-22T10:47:17.119Z,1024.19
2016-08-22T10:48:17.144Z,1024.2
2016-08-22T10:49:17.176Z,1024.21
2016-08-22T10:50:17.202Z,1024.18
2016-08-22T10:51:17.226Z,1024.25
2016-08-22T10:52:17.250Z,1024.23
2016-08-22T10:53:17.275Z,1024.3
2016-08-22T10:54:17.306Z,1024.25
2016-08-22T10:55:17.337Z,1024.27
2016-08-22T10:56:17.360Z,1024.27
2016-08-22T10:57:17.397Z,1024.32
2016-08-22T10:58:17.414Z,1024.37
2016-08-22T10:59:17.434Z,1024.4
2016-08-22T11:00:17.465Z,1024.4
2016-08-22T11:01:17.492Z,1024.4
2016-08-22T11:02:17.525Z,1024.36
2016-08-22T11:03:17.546Z,1024.44
2016-08-22T11:04:17.571Z,1024.37
2016-08-22T11:05:17.608Z,1024.37
2016-08-22T11:06:17.628Z,1024.29
2016-08-22T11:07:17.649Z,1024.27
2016-08-22T11:08:17.695Z,1024.26
2016-08-22T11:09:17.850Z,1024.24
2016-08-22T11:10:17.936Z,1024.22
2016-08-22T11:11:17.907Z,1024.22
2016-08-22T11:12:17.887Z,1024.28
2016-08-22T11:13:17.915Z,1024.3
2016-08-22T11:14:17.888Z,1024.31
2016-08-22T11:15:17.917Z,1024.29
2016-08-22T11:16:17.890Z,1024.26
2016-08-22T11:17:17.915Z,1024.28
2016-08-22T11:18:17.948Z,1024.28
2016-08-22T11:19:17.969Z,1024.26
2016-08-22T11:20:17.996Z,1024.28
2016-08-22T11:21:18.026Z,1024.24
2016-08-22T11:22:18.052Z,1024.19
2016-08-22T11:23:18.084Z,1024.15
2016-08-22T11:24:18.100Z,1024.14
2016-08-22T11:25:18.135Z,1024.11
2016-08-22T11:26:18.166Z,1024.07
2016-08-22T11:27:18.182Z,1024.07
2016-08-22T11:28:18.220Z,1024.06
2016-08-22T11:29:18.332Z,1024.09
2016-08-22T11:30:18.264Z,1024.08
2016-08-22T11:31:18.287Z,1024.07
2016-08-22T11:32:18.316Z,1024.09
2016-08-22T11:33:18.336Z,1024.13
2016-08-22T11:34:18.364Z,1024.1
2016-08-22T11:35:18.391Z,1024.13
2016-08-22T11:36:18.415Z,1024.19
2016-08-22T11:37:18.445Z,1024.2
2016-08-22T11:38:18.475Z,1024.18
2016-08-22T11:39:18.500Z,1024.17
2016-08-22T11:40:18.541Z,1024.14
2016-08-22T11:41:18.546Z,1024.13
2016-08-22T11:42:18.574Z,1024.17
2016-08-22T11:43:18.597Z,1024.15
2016-08-22T11:44:18.621Z,1024.09
2016-08-22T11:45:18.644Z,1024.06
2016-08-22T11:46:18.680Z,1024.05
2016-08-22T11:47:18.707Z,1024.06
2016-08-22T11:48:18.725Z,1024.07
2016-08-22T11:49:18.766Z,1024.09
2016-08-22T11:50:18.775Z,1024.15
2016-08-22T11:51:18.908Z,1024.11
2016-08-22T11:52:18.834Z,1024.12
2016-08-22T11:53:18.855Z,1024.11
2016-08-22T11:54:18.878Z,1024.16
2016-08-22T11:55:18.906Z,1024.14
2016-08-22T11:56:18.930Z,1024.2
2016-08-22T11:57:18.956Z,1024.17
2016-08-22T11:58:18.985Z,1024.11
2016-08-22T11:59:19.009Z,1024.17
2016-08-22T12:00:19.038Z,1024.14
2016-08-22T12:01:19.059Z,1024.12
2016-08-22T12:02:19.087Z,1024.15
2016-08-22T12:03:19.128Z,1024.12
2016-08-22T12:04:19.138Z,1024.11
2016-08-22T12:05:19.164Z,1024.09
2016-08-22T12:06:19.186Z,1024.09
2016-08-22T12:07:19.220Z,1024.04
2016-08-22T12:08:19.251Z,1024.03